Time;durP1;ratioP1;P1;durP2;ratioP2;P2;SDS_P1;SDS_P2;PMS_P1;PMS_P2;Temp;Humidity;BMP_temperature;BMP_pressure;BME280_temperature;BME280_humidity;BME280_pressure;Samples;Min_cycle;Max_cycle;Signal;HPM_P1;HPM_P2
2023/07/08 00:01:39;;;;;;;3.03;2.75;;;;;;;;;;4994957;28;20117;-60
2023/07/08 00:04:04;;;;;;;3.13;2.65;;;;;;;;;;4995428;28;20029;-60
2023/07/08 00:06:30;;;;;;;2.92;2.70;;;;;;;;;;4995207;28;20394;-60
2023/07/08 00:08:55;;;;;;;3.20;3.00;;;;;;;;;;4994950;28;20038;-60
2023/07/08 00:11:21;;;;;;;4.72;2.97;;;;;;;;;;4994941;28;20027;-60
2023/07/08 00:13:46;;;;;;;2.65;2.50;;;;;;;;;;4995576;28;20427;-60
2023/07/08 00:16:13;;;;;;;3.00;2.80;;;;;;;;;;4994977;28;20034;-60
2023/07/08 00:18:38;;;;;;;3.20;2.90;;;;;;;;;;4977887;28;20030;-60
2023/07/08 00:21:07;;;;;;;3.30;3.00;;;;;;;;;;4977439;28;20038;-66
2023/07/08 00:23:35;;;;;;;3.80;2.60;;;;;;;;;;4994660;28;20481;-65
2023/07/08 00:26:01;;;;;;;2.47;2.38;;;;;;;;;;4994672;28;20375;-65
2023/07/08 00:28:26;;;;;;;3.00;2.80;;;;;;;;;;4994534;28;20042;-66
2023/07/08 00:30:53;;;;;;;2.67;2.47;;;;;;;;;;4976855;28;20390;-66
2023/07/08 00:33:19;;;;;;;2.72;2.47;;;;;;;;;;4994111;28;20029;-66
2023/07/08 00:35:45;;;;;;;3.17;2.65;;;;;;;;;;4994791;28;20471;-66
2023/07/08 00:38:26;;;;;;;2.50;2.35;;;;;;;;;;4977051;28;20048;-66
2023/07/08 00:41:07;;;;;;;3.00;2.65;;;;;;;;;;4994820;28;20040;-66
2023/07/08 00:43:49;;;;;;;4.72;2.95;;;;;;;;;;4994725;28;20046;-66
2023/07/08 00:46:17;;;;;;;3.00;2.70;;;;;;;;;;4994381;28;20070;-67
2023/07/08 00:51:22;;;;;;;3.08;2.92;;;;;;;;;;5063338;22;20401;-61
2023/07/08 00:57:24;;;;;;;2.58;2.38;;;;;;;;;;5033987;28;20057;-67
2023/07/08 00:59:54;;;;;;;3.10;2.75;;;;;;;;;;5033492;28;20476;-67
2023/07/08 01:02:21;;;;;;;2.70;2.50;;;;;;;;;;5033749;28;20068;-66
2023/07/08 01:04:50;;;;;;;2.53;2.35;;;;;;;;;;5032952;28;20025;-66
2023/07/08 01:07:21;;;;;;;2.80;2.60;;;;;;;;;;5034064;28;20033;-66
2023/07/08 01:09:47;;;;;;;3.22;2.92;;;;;;;;;;5033126;28;20489;-65
2023/07/08 01:12:18;;;;;;;2.90;2.70;;;;;;;;;;5032176;28;20028;-66
2023/07/08 01:14:44;;;;;;;4.70;2.75;;;;;;;;;;5032149;28;20032;-66
2023/07/08 01:17:13;;;;;;;2.88;2.67;;;;;;;;;;5033370;28;20031;-66
2023/07/08 01:19:42;;;;;;;3.50;2.60;;;;;;;;;;5033432;28;20030;-65
2023/07/08 01:22:08;;;;;;;3.63;2.70;;;;;;;;;;5032020;28;20033;-65
2023/07/08 01:24:35;;;;;;;2.95;2.75;;;;;;;;;;5033481;28;20029;-66
2023/07/08 01:27:01;;;;;;;2.92;2.58;;;;;;;;;;5033251;28;20053;-66
2023/07/08 01:29:27;;;;;;;2.70;2.50;;;;;;;;;;5031822;28;20110;-66
2023/07/08 01:31:54;;;;;;;2.88;2.67;;;;;;;;;;5033331;28;20120;-67
2023/07/08 01:34:20;;;;;;;2.70;2.50;;;;;;;;;;5033681;28;20030;-66
2023/07/08 01:36:49;;;;;;;2.65;2.20;;;;;;;;;;5031709;28;20087;-66
2023/07/08 01:39:17;;;;;;;2.45;2.35;;;;;;;;;;5031951;28;20033;-65
2023/07/08 01:41:43;;;;;;;2.67;2.47;;;;;;;;;;5033221;28;20110;-65
2023/07/08 01:44:23;;;;;;;2.60;2.47;;;;;;;;;;5033529;28;20095;-65
2023/07/08 01:46:48;;;;;;;2.63;2.43;;;;;;;;;;5032245;28;20469;-65
2023/07/08 01:49:13;;;;;;;3.13;2.72;;;;;;;;;;5033367;28;20109;-65
2023/07/08 01:51:39;;;;;;;2.90;2.70;;;;;;;;;;5032021;28;20029;-66
2023/07/08 01:54:04;;;;;;;3.28;2.70;;;;;;;;;;5032987;28;20492;-66
2023/07/08 01:56:29;;;;;;;2.28;2.17;;;;;;;;;;5033038;28;20030;-66
2023/07/08 01:58:55;;;;;;;3.00;2.42;;;;;;;;;;5031829;28;20034;-66
2023/07/08 02:01:20;;;;;;;2.92;2.53;;;;;;;;;;5034666;28;20032;-66
2023/07/08 02:03:46;;;;;;;2.25;2.15;;;;;;;;;;5036569;28;20095;-66
2023/07/08 02:06:11;;;;;;;2.50;2.22;;;;;;;;;;5036963;28;20021;-66
2023/07/08 02:08:37;;;;;;;2.50;2.30;;;;;;;;;;5036436;28;20110;-66
2023/07/08 02:11:02;;;;;;;3.05;2.50;;;;;;;;;;5035219;28;20032;-65
2023/07/08 02:13:29;;;;;;;2.35;2.17;;;;;;;;;;5036448;28;20022;-65
2023/07/08 02:15:54;;;;;;;2.72;2.53;;;;;;;;;;5035051;28;20496;-66
2023/07/08 02:18:19;;;;;;;2.47;2.30;;;;;;;;;;5036703;28;20075;-66
2023/07/08 02:20:45;;;;;;;2.30;2.20;;;;;;;;;;5036163;28;20481;-66
2023/07/08 02:23:11;;;;;;;2.30;2.10;;;;;;;;;;5036388;28;20061;-66
2023/07/08 02:25:36;;;;;;;2.40;2.20;;;;;;;;;;5036587;28;20382;-66
2023/07/08 02:28:02;;;;;;;2.75;2.30;;;;;;;;;;5036004;28;20034;-66
2023/07/08 02:30:27;;;;;;;2.22;2.13;;;;;;;;;;5036254;28;20056;-66
2023/07/08 02:32:59;;;;;;;2.38;2.22;;;;;;;;;;5036279;28;20021;-66
2023/07/08 02:35:26;;;;;;;2.92;2.30;;;;;;;;;;5036033;28;20048;-66
2023/07/08 02:37:52;;;;;;;2.63;2.53;;;;;;;;;;5034788;28;20026;-66
2023/07/08 02:40:17;;;;;;;2.55;2.33;;;;;;;;;;5034668;28;20036;-66
2023/07/08 02:42:43;;;;;;;2.58;2.47;;;;;;;;;;5035784;28;20359;-66
2023/07/08 02:45:10;;;;;;;2.25;2.15;;;;;;;;;;5034553;28;20152;-66
2023/07/08 02:47:36;;;;;;;1.92;1.83;;;;;;;;;;5035971;28;20036;-66
2023/07/08 02:50:01;;;;;;;2.10;2.00;;;;;;;;;;5036036;28;20021;-66
2023/07/08 02:52:26;;;;;;;2.20;2.10;;;;;;;;;;5034450;28;20022;-66
2023/07/08 02:54:52;;;;;;;2.20;2.10;;;;;;;;;;5034518;28;20120;-66
2023/07/08 02:57:17;;;;;;;2.30;2.20;;;;;;;;;;5034286;28;20485;-66
2023/07/08 02:59:43;;;;;;;2.30;2.10;;;;;;;;;;5034361;28;20029;-66
2023/07/08 03:02:08;;;;;;;2.28;2.17;;;;;;;;;;5033934;28;20026;-66
2023/07/08 03:04:38;;;;;;;2.42;2.10;;;;;;;;;;5035505;28;20033;-66
2023/07/08 03:07:04;;;;;;;3.38;2.13;;;;;;;;;;5035754;28;20037;-66
2023/07/08 03:09:29;;;;;;;2.15;2.00;;;;;;;;;;5035830;28;20037;-66
2023/07/08 03:11:55;;;;;;;2.35;2.20;;;;;;;;;;5033349;28;20030;-66
2023/07/08 03:14:20;;;;;;;2.38;2.28;;;;;;;;;;5034331;28;20527;-66
2023/07/08 03:16:45;;;;;;;3.05;2.50;;;;;;;;;;5034364;28;20029;-66
2023/07/08 03:19:14;;;;;;;3.80;2.28;;;;;;;;;;5034064;28;20040;-66
2023/07/08 03:21:40;;;;;;;3.30;2.38;;;;;;;;;;5034203;28;20040;-67
2023/07/08 03:24:07;;;;;;;2.70;2.28;;;;;;;;;;5033872;28;20029;-66
2023/07/08 03:26:34;;;;;;;3.65;2.17;;;;;;;;;;5033841;28;20116;-67
2023/07/08 03:28:59;;;;;;;3.60;2.28;;;;;;;;;;5033589;28;20021;-67
2023/07/08 03:31:25;;;;;;;3.08;2.45;;;;;;;;;;5033754;28;20484;-67
2023/07/08 03:33:51;;;;;;;3.20;3.00;;;;;;;;;;5033790;28;20044;-67
2023/07/08 03:36:23;;;;;;;2.70;2.50;;;;;;;;;;5033536;28;20439;-68
2023/07/08 03:38:52;;;;;;;2.85;2.65;;;;;;;;;;5035015;28;20087;-69
2023/07/08 03:41:18;;;;;;;3.53;2.17;;;;;;;;;;5035252;28;20069;-66
2023/07/08 03:43:43;;;;;;;2.33;2.03;;;;;;;;;;5034721;28;20045;-66
2023/07/08 03:46:14;;;;;;;2.38;2.17;;;;;;;;;;5033678;28;20025;-66
2023/07/08 03:48:39;;;;;;;6.13;3.85;;;;;;;;;;5034004;28;20567;-65
2023/07/08 03:51:27;;;;;;;6.03;4.32;;;;;;;;;;5033169;28;20032;-65
2023/07/08 03:53:52;;;;;;;12.57;8.02;;;;;;;;;;5033295;28;20049;-65
2023/07/08 03:56:19;;;;;;;4.90;4.00;;;;;;;;;;5033726;28;20053;-65
2023/07/08 03:58:44;;;;;;;3.25;2.92;;;;;;;;;;5033445;28;20053;-66
2023/07/08 04:01:16;;;;;;;2.75;2.60;;;;;;;;;;5017035;28;20092;-67
2023/07/08 04:03:42;;;;;;;2.92;2.55;;;;;;;;;;5033501;28;20052;-66
2023/07/08 04:06:07;;;;;;;2.95;2.15;;;;;;;;;;5033350;28;20037;-66
2023/07/08 04:08:33;;;;;;;2.20;2.10;;;;;;;;;;5034496;28;20041;-66
2023/07/08 04:13:32;;;;;;;2.35;2.15;;;;;;;;;;5010227;23;20502;-64
2023/07/08 04:16:06;;;;;;;1.80;1.70;;;;;;;;;;5073318;28;20123;-60
2023/07/08 04:18:32;;;;;;;2.13;1.92;;;;;;;;;;5074300;28;20111;-60
2023/07/08 04:20:57;;;;;;;3.75;2.13;;;;;;;;;;5040051;28;20060;-61
2023/07/08 04:23:22;;;;;;;2.72;2.10;;;;;;;;;;5074053;28;20033;-61
2023/07/08 04:25:48;;;;;;;2.92;2.28;;;;;;;;;;5074283;28;20021;-61
2023/07/08 04:28:14;;;;;;;2.90;2.67;;;;;;;;;;5056322;28;20032;-62
2023/07/08 04:30:41;;;;;;;3.38;3.10;;;;;;;;;;5074026;28;20063;-61
2023/07/08 04:33:09;;;;;;;3.45;3.15;;;;;;;;;;5056109;28;20464;-62
2023/07/08 04:35:38;;;;;;;2.97;2.78;;;;;;;;;;5074038;28;20032;-61
2023/07/08 04:38:09;;;;;;;3.78;3.00;;;;;;;;;;5055718;28;20507;-61
2023/07/08 04:40:39;;;;;;;3.33;3.03;;;;;;;;;;5055715;28;20028;-61
2023/07/08 04:43:04;;;;;;;3.13;2.92;;;;;;;;;;5074023;28;20036;-61
2023/07/08 04:45:30;;;;;;;3.30;2.97;;;;;;;;;;5055081;28;20024;-61
2023/07/08 04:47:55;;;;;;;3.20;2.95;;;;;;;;;;5055865;28;20483;-61
2023/07/08 04:50:21;;;;;;;2.97;2.78;;;;;;;;;;5073680;28;20031;-61
2023/07/08 04:52:46;;;;;;;3.33;3.10;;;;;;;;;;5056269;28;20121;-61
2023/07/08 04:55:13;;;;;;;3.30;3.10;;;;;;;;;;5055665;28;20052;-61
2023/07/08 04:57:38;;;;;;;3.33;3.03;;;;;;;;;;5073862;28;20032;-60
2023/07/08 05:00:07;;;;;;;3.13;2.92;;;;;;;;;;5073784;28;20044;-61
2023/07/08 05:02:32;;;;;;;3.80;2.85;;;;;;;;;;5055676;28;20434;-61
2023/07/08 05:04:58;;;;;;;2.80;2.60;;;;;;;;;;5073851;28;20032;-61
2023/07/08 05:07:23;;;;;;;3.03;2.83;;;;;;;;;;5073678;28;20032;-61
2023/07/08 05:09:48;;;;;;;2.92;2.72;;;;;;;;;;5056060;28;20100;-61
2023/07/08 05:12:14;;;;;;;2.88;2.72;;;;;;;;;;5073414;28;20032;-61
2023/07/08 05:14:39;;;;;;;2.63;2.53;;;;;;;;;;5073154;28;20044;-61
2023/07/08 05:17:05;;;;;;;3.03;2.83;;;;;;;;;;5055379;28;20035;-61
2023/07/08 05:19:30;;;;;;;4.57;2.97;;;;;;;;;;5073470;28;20044;-61
2023/07/08 05:21:55;;;;;;;3.25;3.05;;;;;;;;;;5055692;28;20044;-61
2023/07/08 05:24:21;;;;;;;2.92;2.72;;;;;;;;;;5055901;28;20107;-61
2023/07/08 05:26:46;;;;;;;3.85;2.85;;;;;;;;;;5073918;28;20111;-61
2023/07/08 05:29:11;;;;;;;3.25;3.05;;;;;;;;;;5055087;28;20036;-60
2023/07/08 05:31:37;;;;;;;4.53;2.70;;;;;;;;;;5055931;28;20039;-61
2023/07/08 05:34:02;;;;;;;2.97;2.72;;;;;;;;;;5073595;28;20025;-61
2023/07/08 05:36:28;;;;;;;2.92;2.63;;;;;;;;;;5076319;28;20032;-61
2023/07/08 05:38:53;;;;;;;2.50;2.30;;;;;;;;;;5077184;28;20016;-60
2023/07/08 05:41:18;;;;;;;2.35;2.20;;;;;;;;;;5077422;28;20130;-61
2023/07/08 05:43:44;;;;;;;3.40;2.53;;;;;;;;;;5076606;28;20028;-61
2023/07/08 05:46:09;;;;;;;2.75;2.50;;;;;;;;;;5076205;28;20017;-60
2023/07/08 05:48:35;;;;;;;3.80;2.80;;;;;;;;;;5076318;28;20476;-61
2023/07/08 05:51:00;;;;;;;2.75;2.50;;;;;;;;;;5076500;28;20095;-61
2023/07/08 05:53:26;;;;;;;2.97;2.42;;;;;;;;;;5076079;28;20557;-61
2023/07/08 05:55:51;;;;;;;2.60;2.38;;;;;;;;;;5076562;28;20043;-61
2023/07/08 05:58:17;;;;;;;3.60;2.13;;;;;;;;;;5076282;28;20043;-61
2023/07/08 06:00:43;;;;;;;2.92;2.30;;;;;;;;;;5075955;28;20035;-61
2023/07/08 06:03:08;;;;;;;2.72;2.15;;;;;;;;;;5057854;28;20141;-61
2023/07/08 06:05:34;;;;;;;5.32;2.15;;;;;;;;;;5075280;28;20050;-61
2023/07/08 06:07:59;;;;;;;2.53;2.17;;;;;;;;;;5057823;28;20039;-61
2023/07/08 06:10:24;;;;;;;2.90;2.70;;;;;;;;;;5075806;28;20107;-66
2023/07/08 06:12:50;;;;;;;3.65;2.63;;;;;;;;;;5075850;28;20056;-64
2023/07/08 06:15:15;;;;;;;2.60;2.38;;;;;;;;;;5075963;28;20106;-72
2023/07/08 06:17:41;;;;;;;3.45;2.97;;;;;;;;;;5075930;28;20031;-72
2023/07/08 06:20:07;;;;;;;4.28;3.03;;;;;;;;;;5076015;28;20157;-68
2023/07/08 06:22:33;;;;;;;3.08;2.25;;;;;;;;;;5075571;28;20033;-68
2023/07/08 06:24:58;;;;;;;2.50;2.30;;;;;;;;;;5075887;28;20460;-68
2023/07/08 06:27:24;;;;;;;3.58;2.47;;;;;;;;;;5075414;28;20052;-68
2023/07/08 06:29:50;;;;;;;2.67;2.25;;;;;;;;;;5075765;28;20048;-68
2023/07/08 06:32:15;;;;;;;3.15;2.22;;;;;;;;;;5075707;28;20021;-68
2023/07/08 06:34:41;;;;;;;4.38;2.38;;;;;;;;;;5075314;28;20353;-69
2023/07/08 06:37:06;;;;;;;3.55;2.58;;;;;;;;;;5075622;28;20120;-69
2023/07/08 06:39:31;;;;;;;2.35;2.15;;;;;;;;;;5075615;28;20036;-68
2023/07/08 06:41:57;;;;;;;3.25;2.33;;;;;;;;;;5075404;28;20063;-68
2023/07/08 06:44:27;;;;;;;2.15;1.95;;;;;;;;;;5057583;28;20070;-68
2023/07/08 06:46:52;;;;;;;2.38;1.70;;;;;;;;;;5074208;28;20551;-68
2023/07/08 06:49:18;;;;;;;2.25;1.67;;;;;;;;;;5057313;28;20032;-68
2023/07/08 06:51:45;;;;;;;3.47;2.22;;;;;;;;;;5040352;28;20119;-68
2023/07/08 06:54:11;;;;;;;2.95;2.15;;;;;;;;;;5057396;28;20039;-68
2023/07/08 06:56:39;;;;;;;3.30;1.92;;;;;;;;;;5075049;28;20375;-69
2023/07/08 06:59:05;;;;;;;3.42;2.35;;;;;;;;;;5074406;28;20537;-69
2023/07/08 07:01:31;;;;;;;4.72;2.30;;;;;;;;;;5074417;28;20025;-69
2023/07/08 07:03:56;;;;;;;3.55;2.63;;;;;;;;;;5074600;28;20495;-69
2023/07/08 07:06:21;;;;;;;3.65;1.92;;;;;;;;;;5074748;28;20028;-69
2023/07/08 07:08:47;;;;;;;2.33;2.13;;;;;;;;;;5074881;28;20044;-69
2023/07/08 07:11:13;;;;;;;2.17;1.92;;;;;;;;;;5056341;28;20016;-69
2023/07/08 07:13:38;;;;;;;3.20;2.35;;;;;;;;;;5073768;28;20162;-69
2023/07/08 07:16:03;;;;;;;3.58;2.20;;;;;;;;;;5056729;28;20025;-69
2023/07/08 07:18:30;;;;;;;3.42;1.88;;;;;;;;;;5074714;28;20468;-72
2023/07/08 07:20:55;;;;;;;3.47;2.70;;;;;;;;;;5075449;28;20177;-71
2023/07/08 07:23:21;;;;;;;2.85;2.08;;;;;;;;;;5074409;28;20130;-72
2023/07/08 07:25:47;;;;;;;3.13;1.95;;;;;;;;;;5074074;28;20052;-71
2023/07/08 07:28:13;;;;;;;3.35;2.35;;;;;;;;;;5056719;28;20031;-70
2023/07/08 07:30:38;;;;;;;3.00;2.17;;;;;;;;;;5074455;28;20411;-70
2023/07/08 07:33:04;;;;;;;2.20;2.00;;;;;;;;;;5074411;28;20048;-70
2023/07/08 07:35:29;;;;;;;2.20;1.88;;;;;;;;;;5074328;28;20459;-70
2023/07/08 07:37:54;;;;;;;2.47;1.90;;;;;;;;;;5074271;28;20099;-70
2023/07/08 07:40:20;;;;;;;3.05;1.80;;;;;;;;;;5074571;28;20439;-70
2023/07/08 07:42:48;;;;;;;1.80;1.70;;;;;;;;;;5074757;28;20520;-70
2023/07/08 07:45:14;;;;;;;2.53;2.30;;;;;;;;;;5074124;28;20372;-70
2023/07/08 07:47:39;;;;;;;1.50;1.40;;;;;;;;;;5056137;28;20033;-70
2023/07/08 07:50:06;;;;;;;3.08;1.85;;;;;;;;;;5073969;28;20373;-70
2023/07/08 07:52:31;;;;;;;2.40;2.20;;;;;;;;;;5061972;28;20115;-71
2023/07/08 07:54:57;;;;;;;2.25;1.90;;;;;;;;;;5075291;28;20123;-70
2023/07/08 07:57:22;;;;;;;2.40;2.20;;;;;;;;;;5092708;28;20069;-70
2023/07/08 07:59:48;;;;;;;3.13;1.90;;;;;;;;;;5092290;28;20156;-70
2023/07/08 08:02:14;;;;;;;1.83;1.73;;;;;;;;;;5093112;28;20081;-71
2023/07/08 08:04:39;;;;;;;2.25;2.05;;;;;;;;;;5092799;28;20016;-70
2023/07/08 08:07:05;;;;;;;1.60;1.50;;;;;;;;;;5092877;28;20640;-70
2023/07/08 08:09:30;;;;;;;1.75;1.65;;;;;;;;;;5092511;28;20024;-70
2023/07/08 08:11:56;;;;;;;2.60;2.28;;;;;;;;;;5092588;28;20429;-71
2023/07/08 08:14:21;;;;;;;3.38;1.90;;;;;;;;;;5092766;28;20040;-69
2023/07/08 08:16:47;;;;;;;2.78;2.08;;;;;;;;;;5092928;28;20032;-69
2023/07/08 08:19:12;;;;;;;2.22;2.13;;;;;;;;;;5092659;28;20024;-69
2023/07/08 08:21:37;;;;;;;3.83;2.10;;;;;;;;;;5074703;28;20398;-68
2023/07/08 08:24:03;;;;;;;2.67;2.45;;;;;;;;;;5093366;28;20491;-68
2023/07/08 08:26:28;;;;;;;2.08;1.88;;;;;;;;;;5093128;28;20028;-68
2023/07/08 08:28:54;;;;;;;2.05;1.95;;;;;;;;;;5074910;28;20141;-68
2023/07/08 08:31:19;;;;;;;1.80;1.52;;;;;;;;;;5093107;28;20048;-68
2023/07/08 08:33:45;;;;;;;2.70;2.08;;;;;;;;;;5093659;28;20025;-68
2023/07/08 08:36:10;;;;;;;5.57;1.95;;;;;;;;;;5075506;28;20012;-69
2023/07/08 08:38:36;;;;;;;3.50;2.58;;;;;;;;;;5075233;28;20081;-66
2023/07/08 08:41:11;;;;;;;13.95;4.78;;;;;;;;;;5093418;28;20106;-66
2023/07/08 08:43:39;;;;;;;2.80;2.10;;;;;;;;;;5075678;28;20429;-65
2023/07/08 08:46:08;;;;;;;3.22;2.20;;;;;;;;;;5093630;28;20103;-65
2023/07/08 08:48:37;;;;;;;2.88;2.30;;;;;;;;;;5093522;28;20028;-66
2023/07/08 08:51:06;;;;;;;2.30;2.15;;;;;;;;;;5093672;28;20039;-65
2023/07/08 08:53:32;;;;;;;3.95;2.33;;;;;;;;;;5093893;28;20433;-65
2023/07/08 08:56:05;;;;;;;2.30;2.10;;;;;;;;;;5093696;28;20028;-65
2023/07/08 08:58:36;;;;;;;6.65;2.42;;;;;;;;;;5075734;28;20064;-65
2023/07/08 09:01:03;;;;;;;4.15;2.25;;;;;;;;;;5093866;28;20024;-65
2023/07/08 09:03:29;;;;;;;3.03;2.22;;;;;;;;;;5093876;28;20097;-65
2023/07/08 09:05:57;;;;;;;2.70;2.50;;;;;;;;;;5093846;28;20531;-65
2023/07/08 09:08:22;;;;;;;4.55;2.65;;;;;;;;;;5094049;28;20059;-65
2023/07/08 09:10:51;;;;;;;2.30;2.20;;;;;;;;;;5077796;28;20028;-65
2023/07/08 09:13:20;;;;;;;3.53;2.25;;;;;;;;;;5063053;28;20073;-65
2023/07/08 09:15:46;;;;;;;3.75;2.80;;;;;;;;;;5076725;28;20052;-65
2023/07/08 09:18:20;;;;;;;2.70;2.47;;;;;;;;;;5077955;28;20032;-65
2023/07/08 09:20:47;;;;;;;2.15;1.92;;;;;;;;;;5077407;28;20039;-65
2023/07/08 09:23:20;;;;;;;3.70;1.83;;;;;;;;;;5077432;28;20012;-65
2023/07/08 09:25:49;;;;;;;3.22;2.40;;;;;;;;;;5076513;28;20028;-65
2023/07/08 09:28:14;;;;;;;4.05;1.92;;;;;;;;;;5077680;28;20024;-65
2023/07/08 09:30:39;;;;;;;3.42;2.55;;;;;;;;;;5077551;28;20471;-65
2023/07/08 09:33:07;;;;;;;2.95;2.30;;;;;;;;;;5077495;28;20387;-65
2023/07/08 09:35:40;;;;;;;2.55;2.35;;;;;;;;;;5077721;28;20033;-65
2023/07/08 09:38:09;;;;;;;3.97;2.53;;;;;;;;;;5076251;28;20111;-65
2023/07/08 09:40:34;;;;;;;2.40;1.80;;;;;;;;;;5077455;28;20115;-65
2023/07/08 09:43:23;;;;;;;2.05;1.90;;;;;;;;;;5075887;28;20113;-65
2023/07/08 09:45:49;;;;;;;2.22;1.90;;;;;;;;;;5077057;28;20071;-65
2023/07/08 09:48:15;;;;;;;4.30;2.45;;;;;;;;;;5077375;28;20052;-68
2023/07/08 09:50:43;;;;;;;4.60;2.50;;;;;;;;;;5076934;28;20115;-68
2023/07/08 09:53:12;;;;;;;2.97;2.00;;;;;;;;;;5076002;28;20049;-68
2023/07/08 09:55:38;;;;;;;2.35;2.15;;;;;;;;;;5076804;28;20032;-68
2023/07/08 09:58:03;;;;;;;3.13;2.10;;;;;;;;;;5077000;28;20062;-68
2023/07/08 10:00:33;;;;;;;3.17;2.58;;;;;;;;;;5077067;28;20090;-68
2023/07/08 10:03:11;;;;;;;6.28;2.70;;;;;;;;;;5076994;28;20029;-68
2023/07/08 10:05:41;;;;;;;2.85;2.33;;;;;;;;;;5075656;28;20020;-68
2023/07/08 10:08:15;;;;;;;2.42;2.22;;;;;;;;;;5077098;28;20029;-68
2023/07/08 10:10:41;;;;;;;3.97;2.70;;;;;;;;;;5076861;28;20035;-68
2023/07/08 10:13:25;;;;;;;3.92;2.47;;;;;;;;;;5077226;28;20016;-68
2023/07/08 10:16:02;;;;;;;2.30;2.10;;;;;;;;;;5096973;28;20479;-68
2023/07/08 10:18:28;;;;;;;3.30;2.50;;;;;;;;;;5078978;28;20502;-68
2023/07/08 10:20:59;;;;;;;3.28;2.40;;;;;;;;;;5096399;28;20462;-68
2023/07/08 10:23:38;;;;;;;3.53;2.20;;;;;;;;;;5078576;28;20035;-68
2023/07/08 10:26:10;;;;;;;2.58;2.25;;;;;;;;;;5096845;28;20088;-68
2023/07/08 10:28:43;;;;;;;3.15;2.30;;;;;;;;;;5078600;28;20048;-64
2023/07/08 10:31:17;;;;;;;2.50;2.30;;;;;;;;;;5097073;28;20029;-64
2023/07/08 10:33:45;;;;;;;2.30;2.10;;;;;;;;;;5096373;28;20028;-64
2023/07/08 10:36:36;;;;;;;4.22;2.55;;;;;;;;;;5096422;28;20478;-65
2023/07/08 10:39:01;;;;;;;;;;;;;;;;;;5096837;28;20056;-67
2023/07/08 10:41:43;;;;;;;2.88;2.40;;;;;;;;;;5078730;28;20012;-65
2023/07/08 10:44:20;;;;;;;3.70;2.05;;;;;;;;;;5096416;28;20368;-64
2023/07/08 10:47:04;;;;;;;2.13;2.03;;;;;;;;;;5078400;28;20024;-66
2023/07/08 10:49:35;;;;;;;2.65;2.45;;;;;;;;;;5094052;28;20028;-64
2023/07/08 10:52:10;;;;;;;2.15;1.95;;;;;;;;;;5075683;28;20025;-64
2023/07/08 10:54:49;;;;;;;2.30;2.13;;;;;;;;;;5076110;28;20032;-64
2023/07/08 10:57:39;;;;;;;3.28;2.70;;;;;;;;;;5076337;28;20047;-64
2023/07/08 11:00:19;;;;;;;3.00;2.55;;;;;;;;;;5076092;28;20040;-64
2023/07/08 11:02:56;;;;;;;5.75;3.30;;;;;;;;;;5075969;28;20036;-66
2023/07/08 11:05:37;;;;;;;4.05;2.65;;;;;;;;;;5075840;28;20522;-66
2023/07/08 11:08:07;;;;;;;2.80;2.60;;;;;;;;;;5075894;28;20040;-64
2023/07/08 11:10:53;;;;;;;3.50;2.47;;;;;;;;;;5075690;28;20024;-64
2023/07/08 11:13:19;;;;;;;3.63;2.03;;;;;;;;;;5075546;28;20032;-64
2023/07/08 11:16:01;;;;;;;2.05;1.95;;;;;;;;;;5075295;28;20366;-63
2023/07/08 11:18:29;;;;;;;3.55;2.45;;;;;;;;;;5075758;28;20029;-63
2023/07/08 11:20:54;;;;;;;2.05;1.95;;;;;;;;;;5075297;28;20032;-66
2023/07/08 11:23:36;;;;;;;2.15;1.90;;;;;;;;;;5075616;28;20025;-66
2023/07/08 11:26:19;;;;;;;3.42;2.30;;;;;;;;;;5074015;28;20040;-66
2023/07/08 11:28:45;;;;;;;2.33;2.08;;;;;;;;;;5074157;28;20037;-66
2023/07/08 11:31:12;;;;;;;2.58;2.38;;;;;;;;;;5057291;28;20056;-66
2023/07/08 11:33:38;;;;;;;2.90;2.30;;;;;;;;;;5074717;28;20452;-63
2023/07/08 11:36:03;;;;;;;2.97;2.30;;;;;;;;;;5075248;28;20415;-63
2023/07/08 11:38:31;;;;;;;1.73;1.63;;;;;;;;;;5075739;28;20112;-63
2023/07/08 11:40:58;;;;;;;2.50;2.30;;;;;;;;;;5075015;28;20106;-63
2023/07/08 11:43:36;;;;;;;3.25;2.38;;;;;;;;;;5074757;28;20036;-65
2023/07/08 11:46:04;;;;;;;2.60;2.40;;;;;;;;;;5074673;28;20040;-66
2023/07/08 11:48:31;;;;;;;2.83;2.22;;;;;;;;;;5074153;28;20490;-65
2023/07/08 11:50:57;;;;;;;2.55;2.35;;;;;;;;;;5074393;28;20024;-66
2023/07/08 11:53:29;;;;;;;2.20;2.10;;;;;;;;;;5074737;28;20356;-63
2023/07/08 11:55:57;;;;;;;2.25;2.15;;;;;;;;;;5074584;28;20493;-65
2023/07/08 11:58:24;;;;;;;2.22;2.13;;;;;;;;;;5074844;28;20035;-66
2023/07/08 12:00:57;;;;;;;2.65;2.33;;;;;;;;;;5074594;28;20029;-66
2023/07/08 12:03:28;;;;;;;3.25;2.03;;;;;;;;;;5074470;28;20081;-63
2023/07/08 12:05:56;;;;;;;2.28;2.00;;;;;;;;;;5074276;28;20048;-63
2023/07/08 12:08:32;;;;;;;3.08;2.08;;;;;;;;;;5074584;28;20078;-63
2023/07/08 12:10:58;;;;;;;3.75;2.55;;;;;;;;;;5074807;28;20021;-59
2023/07/08 12:13:24;;;;;;;2.30;1.90;;;;;;;;;;5073661;28;20060;-61
2023/07/08 12:15:50;;;;;;;2.10;1.95;;;;;;;;;;5073560;28;20033;-61
2023/07/08 12:18:19;;;;;;;1.90;1.80;;;;;;;;;;5073817;28;20085;-62
2023/07/08 12:20:46;;;;;;;2.25;1.80;;;;;;;;;;5073748;28;20028;-61
2023/07/08 12:23:13;;;;;;;4.63;2.20;;;;;;;;;;5073641;28;20037;-61
2023/07/08 12:25:39;;;;;;;3.85;1.50;;;;;;;;;;5073667;28;20099;-60
2023/07/08 12:28:04;;;;;;;1.98;1.85;;;;;;;;;;5073823;28;20162;-61
2023/07/08 12:30:31;;;;;;;1.95;1.70;;;;;;;;;;5072224;28;20113;-61
2023/07/08 12:32:59;;;;;;;2.47;1.52;;;;;;;;;;5073446;28;20028;-61
2023/07/08 12:35:26;;;;;;;3.72;1.55;;;;;;;;;;5073745;28;20503;-61
2023/07/08 12:37:52;;;;;;;3.05;1.67;;;;;;;;;;5073498;28;20028;-61
2023/07/08 12:40:20;;;;;;;2.25;2.05;;;;;;;;;;5072487;28;20036;-61
2023/07/08 12:42:45;;;;;;;2.15;1.90;;;;;;;;;;5073512;28;20023;-61
2023/07/08 12:45:15;;;;;;;1.90;1.80;;;;;;;;;;5073438;28;20115;-61
2023/07/08 12:47:41;;;;;;;;;;;;;;;;;;5073755;28;20103;-61
2023/07/08 12:50:08;;;;;;;1.98;1.88;;;;;;;;;;5073332;28;20452;-61
2023/07/08 12:52:34;;;;;;;3.15;2.00;;;;;;;;;;5072079;28;20538;-61
2023/07/08 12:54:59;;;;;;;2.13;1.90;;;;;;;;;;5073740;28;20032;-61
2023/07/08 12:57:24;;;;;;;2.80;1.70;;;;;;;;;;5072150;28;20029;-62
2023/07/08 12:59:50;;;;;;;2.33;2.05;;;;;;;;;;5073311;28;20468;-61
2023/07/08 13:02:17;;;;;;;2.13;2.03;;;;;;;;;;5073384;28;20036;-61
2023/07/08 13:04:44;;;;;;;2.97;1.90;;;;;;;;;;5072773;28;20115;-61
2023/07/08 13:07:17;;;;;;;3.00;2.60;;;;;;;;;;5072382;28;20492;-61
2023/07/08 13:09:44;;;;;;;2.05;1.88;;;;;;;;;;5072718;28;20032;-61
2023/07/08 13:12:17;;;;;;;2.58;2.38;;;;;;;;;;5073084;28;20032;-61
2023/07/08 13:14:43;;;;;;;2.30;2.10;;;;;;;;;;5073265;28;20036;-63
2023/07/08 13:17:13;;;;;;;2.38;1.90;;;;;;;;;;5073484;28;20039;-63
2023/07/08 13:19:39;;;;;;;4.93;2.03;;;;;;;;;;5072717;28;20472;-62
2023/07/08 13:22:04;;;;;;;2.55;2.10;;;;;;;;;;5073220;28;20139;-63
2023/07/08 13:24:31;;;;;;;6.40;2.20;;;;;;;;;;5072896;28;20118;-62
2023/07/08 13:26:57;;;;;;;2.95;2.20;;;;;;;;;;5073147;28;20040;-62
2023/07/08 13:29:24;;;;;;;3.45;2.20;;;;;;;;;;5073106;28;20039;-62
2023/07/08 13:31:53;;;;;;;2.42;2.22;;;;;;;;;;5072016;28;20033;-62
2023/07/08 13:34:19;;;;;;;3.55;2.10;;;;;;;;;;5073199;28;20024;-63
2023/07/08 13:36:45;;;;;;;2.60;2.40;;;;;;;;;;5072858;28;20131;-63
2023/07/08 13:39:28;;;;;;;2.17;1.98;;;;;;;;;;5072927;28;20035;-63
2023/07/08 13:41:54;;;;;;;3.08;2.08;;;;;;;;;;5073026;28;20476;-63
2023/07/08 13:44:19;;;;;;;2.92;2.63;;;;;;;;;;5071880;28;20040;-63
2023/07/08 13:46:50;;;;;;;2.60;2.40;;;;;;;;;;5072961;28;20025;-63
2023/07/08 13:49:20;;;;;;;4.38;2.38;;;;;;;;;;5072832;28;20154;-63
2023/07/08 13:51:48;;;;;;;4.82;2.38;;;;;;;;;;5071578;28;20132;-63
2023/07/08 13:54:20;;;;;;;2.67;2.47;;;;;;;;;;5071490;28;20459;-63
2023/07/08 13:56:45;;;;;;;3.10;2.38;;;;;;;;;;5074436;28;20036;-61
2023/07/08 13:59:15;;;;;;;2.90;2.70;;;;;;;;;;5076465;28;20029;-63
2023/07/08 14:01:41;;;;;;;2.78;2.50;;;;;;;;;;5076599;28;20502;-63
2023/07/08 14:04:07;;;;;;;2.78;2.45;;;;;;;;;;5076576;28;20103;-63
2023/07/08 14:06:35;;;;;;;2.63;2.42;;;;;;;;;;5076407;28;20036;-61
2023/07/08 14:09:20;;;;;;;2.38;1.98;;;;;;;;;;5076282;28;20029;-60
2023/07/08 14:11:46;;;;;;;3.10;2.33;;;;;;;;;;5076294;28;20052;-63
2023/07/08 14:14:11;;;;;;;2.47;2.15;;;;;;;;;;5074500;28;20049;-62
2023/07/08 14:16:39;;;;;;;2.65;2.35;;;;;;;;;;5077076;28;20115;-62
2023/07/08 14:19:06;;;;;;;3.20;2.72;;;;;;;;;;5076615;28;20094;-62
2023/07/08 14:21:35;;;;;;;2.92;2.58;;;;;;;;;;5076264;28;20085;-62
2023/07/08 14:24:01;;;;;;;3.65;2.42;;;;;;;;;;5076276;28;20016;-63
2023/07/08 14:26:28;;;;;;;4.43;2.20;;;;;;;;;;5076039;28;20029;-62
2023/07/08 14:28:53;;;;;;;2.25;1.80;;;;;;;;;;5075938;28;20542;-62
2023/07/08 14:31:20;;;;;;;2.97;2.08;;;;;;;;;;5076415;28;20233;-62
2023/07/08 14:33:46;;;;;;;2.97;2.00;;;;;;;;;;5075631;28;20078;-62
2023/07/08 14:36:12;;;;;;;2.33;2.13;;;;;;;;;;5075080;28;20037;-62
2023/07/08 14:38:38;;;;;;;2.30;2.10;;;;;;;;;;5076243;28;20044;-62
2023/07/08 14:41:03;;;;;;;2.28;1.95;;;;;;;;;;5076588;28;20040;-60
2023/07/08 14:43:30;;;;;;;3.05;2.00;;;;;;;;;;5074787;28;20150;-60
2023/07/08 14:45:56;;;;;;;2.97;2.67;;;;;;;;;;5075512;28;20392;-60
2023/07/08 14:48:22;;;;;;;2.80;2.30;;;;;;;;;;5075597;28;20020;-62
2023/07/08 14:50:48;;;;;;;2.47;2.28;;;;;;;;;;5074126;28;20123;-62
2023/07/08 14:53:14;;;;;;;3.05;2.42;;;;;;;;;;5075954;28;20028;-62
2023/07/08 14:55:39;;;;;;;3.25;2.50;;;;;;;;;;5075856;28;20071;-62